sensor_id;sensor_type;location;lat;lon;timestamp;temperature;humidity
2447;DHT22;26430;48.818;9.244;2024-01-11T00:00:44;1.70;99.20
2447;DHT22;26430;48.818;9.244;2024-01-11T00:03:09;1.50;98.90
2447;DHT22;26430;48.818;9.244;2024-01-11T00:05:35;1.50;99.40
2447;DHT22;26430;48.818;9.244;2024-01-11T00:08:01;1.60;99.70
2447;DHT22;26430;48.818;9.244;2024-01-11T00:10:27;1.60;99.50
2447;DHT22;26430;48.818;9.244;2024-01-11T00:12:52;1.50;99.60
2447;DHT22;26430;48.818;9.244;2024-01-11T00:15:18;1.40;99.60
2447;DHT22;26430;48.818;9.244;2024-01-11T00:17:43;1.30;99.70
2447;DHT22;26430;48.818;9.244;2024-01-11T00:20:09;1.30;99.70
2447;DHT22;26430;48.818;9.244;2024-01-11T00:22:36;1.50;99.90
2447;DHT22;26430;48.818;9.244;2024-01-11T00:25:01;1.50;99.90
2447;DHT22;26430;48.818;9.244;2024-01-11T00:27:27;1.50;99.70
2447;DHT22;26430;48.818;9.244;2024-01-11T00:29:53;1.50;99.90
2447;DHT22;26430;48.818;9.244;2024-01-11T00:32:18;1.50;99.90
2447;DHT22;26430;48.818;9.244;2024-01-11T00:34:46;1.40;99.80
2447;DHT22;26430;48.818;9.244;2024-01-11T00:37:12;1.40;99.90
2447;DHT22;26430;48.818;9.244;2024-01-11T00:39:37;1.50;99.90
2447;DHT22;26430;48.818;9.244;2024-01-11T00:42:03;1.50;99.70
2447;DHT22;26430;48.818;9.244;2024-01-11T00:44:29;1.50;99.90
2447;DHT22;26430;48.818;9.244;2024-01-11T00:46:55;1.50;99.90
2447;DHT22;26430;48.818;9.244;2024-01-11T00:49:21;1.40;99.60
2447;DHT22;26430;48.818;9.244;2024-01-11T00:51:46;1.60;99.80
2447;DHT22;26430;48.818;9.244;2024-01-11T00:54:12;1.50;99.70
2447;DHT22;26430;48.818;9.244;2024-01-11T00:56:37;1.70;99.70
2447;DHT22;26430;48.818;9.244;2024-01-11T00:59:03;1.60;99.80
2447;DHT22;26430;48.818;9.244;2024-01-11T01:01:28;1.40;99.90
2447;DHT22;26430;48.818;9.244;2024-01-11T01:03:54;1.50;99.90
2447;DHT22;26430;48.818;9.244;2024-01-11T01:06:20;1.50;99.70
2447;DHT22;26430;48.818;9.244;2024-01-11T01:08:45;1.50;99.70
2447;DHT22;26430;48.818;9.244;2024-01-11T01:11:11;1.50;99.80
2447;DHT22;26430;48.818;9.244;2024-01-11T01:13:36;1.50;99.60
2447;DHT22;26430;48.818;9.244;2024-01-11T01:16:02;1.10;99.90
2447;DHT22;26430;48.818;9.244;2024-01-11T01:18:28;1.20;99.90
2447;DHT22;26430;48.818;9.244;2024-01-11T01:20:53;1.30;99.90
2447;DHT22;26430;48.818;9.244;2024-01-11T01:23:19;1.50;99.90
2447;DHT22;26430;48.818;9.244;2024-01-11T01:25:44;1.20;99.80
2447;DHT22;26430;48.818;9.244;2024-01-11T01:28:10;1.20;99.90
2447;DHT22;26430;48.818;9.244;2024-01-11T01:30:35;1.10;99.90
2447;DHT22;26430;48.818;9.244;2024-01-11T01:33:01;1.20;99.90
2447;DHT22;26430;48.818;9.244;2024-01-11T01:35:27;1.20;99.90
2447;DHT22;26430;48.818;9.244;2024-01-11T01:37:53;1.30;99.90
2447;DHT22;26430;48.818;9.244;2024-01-11T01:40:18;1.20;99.90
2447;DHT22;26430;48.818;9.244;2024-01-11T01:42:44;1.10;99.90
2447;DHT22;26430;48.818;9.244;2024-01-11T01:45:10;1.20;99.90
2447;DHT22;26430;48.818;9.244;2024-01-11T01:47:40;1.30;99.90
2447;DHT22;26430;48.818;9.244;2024-01-11T01:50:06;1.20;99.90
2447;DHT22;26430;48.818;9.244;2024-01-11T01:52:33;1.20;99.90
2447;DHT22;26430;48.818;9.244;2024-01-11T01:54:58;1.30;99.90
2447;DHT22;26430;48.818;9.244;2024-01-11T01:57:25;1.10;99.90
2447;DHT22;26430;48.818;9.244;2024-01-11T01:59:51;1.10;99.90
2447;DHT22;26430;48.818;9.244;2024-01-11T02:02:20;1.10;99.90
2447;DHT22;26430;48.818;9.244;2024-01-11T02:04:46;1.00;99.90
2447;DHT22;26430;48.818;9.244;2024-01-11T02:07:13;1.10;99.90
2447;DHT22;26430;48.818;9.244;2024-01-11T02:09:40;1.00;99.90
2447;DHT22;26430;48.818;9.244;2024-01-11T02:12:05;1.00;99.90
2447;DHT22;26430;48.818;9.244;2024-01-11T02:14:32;1.00;99.90
2447;DHT22;26430;48.818;9.244;2024-01-11T02:16:57;0.80;99.90
2447;DHT22;26430;48.818;9.244;2024-01-11T02:19:23;0.80;99.90
2447;DHT22;26430;48.818;9.244;2024-01-11T02:21:50;1.00;99.90
2447;DHT22;26430;48.818;9.244;2024-01-11T02:24:17;1.10;99.90
2447;DHT22;26430;48.818;9.244;2024-01-11T02:27:02;1.10;99.90
2447;DHT22;26430;48.818;9.244;2024-01-11T02:29:29;1.10;99.90
2447;DHT22;26430;48.818;9.244;2024-01-11T02:32:00;1.20;99.80
2447;DHT22;26430;48.818;9.244;2024-01-11T02:34:27;1.10;99.90
2447;DHT22;26430;48.818;9.244;2024-01-11T02:36:55;0.90;99.90
2447;DHT22;26430;48.818;9.244;2024-01-11T02:39:23;1.10;99.90
2447;DHT22;26430;48.818;9.244;2024-01-11T02:41:50;1.00;99.90
2447;DHT22;26430;48.818;9.244;2024-01-11T02:44:16;0.90;99.90
2447;DHT22;26430;48.818;9.244;2024-01-11T02:46:42;1.10;99.90
2447;DHT22;26430;48.818;9.244;2024-01-11T02:49:07;0.80;99.90
2447;DHT22;26430;48.818;9.244;2024-01-11T02:51:33;0.80;99.90
2447;DHT22;26430;48.818;9.244;2024-01-11T02:53:58;0.60;99.90
2447;DHT22;26430;48.818;9.244;2024-01-11T02:56:24;0.60;99.90
2447;DHT22;26430;48.818;9.244;2024-01-11T02:58:50;0.60;99.90
2447;DHT22;26430;48.818;9.244;2024-01-11T03:01:15;0.60;99.90
2447;DHT22;26430;48.818;9.244;2024-01-11T03:03:41;0.70;99.90
2447;DHT22;26430;48.818;9.244;2024-01-11T03:06:07;0.80;99.90
2447;DHT22;26430;48.818;9.244;2024-01-11T03:08:32;0.80;99.90
2447;DHT22;26430;48.818;9.244;2024-01-11T03:10:58;0.60;99.90
2447;DHT22;26430;48.818;9.244;2024-01-11T03:13:23;0.70;99.90
2447;DHT22;26430;48.818;9.244;2024-01-11T03:15:49;0.80;99.90
2447;DHT22;26430;48.818;9.244;2024-01-11T03:18:14;0.80;99.90
2447;DHT22;26430;48.818;9.244;2024-01-11T03:20:40;0.70;99.90
2447;DHT22;26430;48.818;9.244;2024-01-11T03:23:06;0.70;99.90
2447;DHT22;26430;48.818;9.244;2024-01-11T03:25:31;0.70;99.90
2447;DHT22;26430;48.818;9.244;2024-01-11T03:28:00;0.60;99.90
2447;DHT22;26430;48.818;9.244;2024-01-11T03:30:26;0.60;99.90
2447;DHT22;26430;48.818;9.244;2024-01-11T03:32:51;0.60;99.90
2447;DHT22;26430;48.818;9.244;2024-01-11T03:35:18;0.60;99.90
2447;DHT22;26430;48.818;9.244;2024-01-11T03:37:44;0.50;99.90
2447;DHT22;26430;48.818;9.244;2024-01-11T03:40:09;0.50;99.90
2447;DHT22;26430;48.818;9.244;2024-01-11T03:42:35;0.60;99.90
2447;DHT22;26430;48.818;9.244;2024-01-11T03:45:01;0.50;99.90
2447;DHT22;26430;48.818;9.244;2024-01-11T03:47:26;0.70;99.90
2447;DHT22;26430;48.818;9.244;2024-01-11T03:49:52;0.70;99.90
2447;DHT22;26430;48.818;9.244;2024-01-11T03:52:17;0.50;99.90
2447;DHT22;26430;48.818;9.244;2024-01-11T03:54:43;0.40;99.90
2447;DHT22;26430;48.818;9.244;2024-01-11T03:57:08;0.40;99.90
2447;DHT22;26430;48.818;9.244;2024-01-11T03:59:34;0.60;99.90
2447;DHT22;26430;48.818;9.244;2024-01-11T04:02:00;0.60;99.90
2447;DHT22;26430;48.818;9.244;2024-01-11T04:04:26;0.70;99.90
2447;DHT22;26430;48.818;9.244;2024-01-11T04:06:52;0.50;99.90
2447;DHT22;26430;48.818;9.244;2024-01-11T04:09:18;0.50;99.90
2447;DHT22;26430;48.818;9.244;2024-01-11T04:11:43;0.60;99.90
2447;DHT22;26430;48.818;9.244;2024-01-11T04:14:09;0.70;99.90
2447;DHT22;26430;48.818;9.244;2024-01-11T04:16:39;0.40;99.90
2447;DHT22;26430;48.818;9.244;2024-01-11T04:19:05;0.70;99.90
2447;DHT22;26430;48.818;9.244;2024-01-11T04:21:30;0.60;99.90
2447;DHT22;26430;48.818;9.244;2024-01-11T04:23:57;0.70;99.90
2447;DHT22;26430;48.818;9.244;2024-01-11T04:26:22;0.70;99.90
2447;DHT22;26430;48.818;9.244;2024-01-11T04:28:49;0.60;99.90
2447;DHT22;26430;48.818;9.244;2024-01-11T04:31:15;0.60;99.90
2447;DHT22;26430;48.818;9.244;2024-01-11T04:33:45;0.60;99.90
2447;DHT22;26430;48.818;9.244;2024-01-11T04:36:11;0.50;99.90
2447;DHT22;26430;48.818;9.244;2024-01-11T04:38:37;0.60;99.90
2447;DHT22;26430;48.818;9.244;2024-01-11T04:43:44;0.50;99.90
2447;DHT22;26430;48.818;9.244;2024-01-11T04:46:18;0.40;99.90
2447;DHT22;26430;48.818;9.244;2024-01-11T04:48:44;0.30;99.90
2447;DHT22;26430;48.818;9.244;2024-01-11T04:51:09;0.10;99.90
2447;DHT22;26430;48.818;9.244;2024-01-11T04:53:39;0.30;99.90
2447;DHT22;26430;48.818;9.244;2024-01-11T04:56:06;0.30;99.90
2447;DHT22;26430;48.818;9.244;2024-01-11T04:58:33;0.20;99.90
2447;DHT22;26430;48.818;9.244;2024-01-11T05:00:58;0.10;99.90
2447;DHT22;26430;48.818;9.244;2024-01-11T05:03:24;0.00;99.90
2447;DHT22;26430;48.818;9.244;2024-01-11T05:05:49;-0.10;99.90
2447;DHT22;26430;48.818;9.244;2024-01-11T05:08:15;0.10;99.90
2447;DHT22;26430;48.818;9.244;2024-01-11T05:10:40;0.30;99.90
2447;DHT22;26430;48.818;9.244;2024-01-11T05:13:06;0.20;99.90
2447;DHT22;26430;48.818;9.244;2024-01-11T05:15:31;0.20;99.90
2447;DHT22;26430;48.818;9.244;2024-01-11T05:17:58;0.20;99.90
2447;DHT22;26430;48.818;9.244;2024-01-11T05:20:24;0.20;99.90
2447;DHT22;26430;48.818;9.244;2024-01-11T05:22:49;0.10;99.90
2447;DHT22;26430;48.818;9.244;2024-01-11T05:25:15;0.10;99.90
2447;DHT22;26430;48.818;9.244;2024-01-11T05:27:40;-0.10;99.90
2447;DHT22;26430;48.818;9.244;2024-01-11T05:30:06;0.00;99.90
2447;DHT22;26430;48.818;9.244;2024-01-11T05:32:32;0.10;99.90
2447;DHT22;26430;48.818;9.244;2024-01-11T05:34:58;0.20;99.90
2447;DHT22;26430;48.818;9.244;2024-01-11T05:37:23;0.20;99.90
2447;DHT22;26430;48.818;9.244;2024-01-11T05:39:49;0.20;99.90
2447;DHT22;26430;48.818;9.244;2024-01-11T05:42:14;0.30;99.90
2447;DHT22;26430;48.818;9.244;2024-01-11T05:44:40;0.30;99.90
2447;DHT22;26430;48.818;9.244;2024-01-11T05:47:06;0.00;99.90
2447;DHT22;26430;48.818;9.244;2024-01-11T05:49:31;0.20;99.90
2447;DHT22;26430;48.818;9.244;2024-01-11T05:51:57;0.40;99.90
2447;DHT22;26430;48.818;9.244;2024-01-11T05:54:22;0.20;99.90
2447;DHT22;26430;48.818;9.244;2024-01-11T05:56:48;0.30;99.90
2447;DHT22;26430;48.818;9.244;2024-01-11T05:59:13;0.30;99.90
2447;DHT22;26430;48.818;9.244;2024-01-11T06:01:42;0.40;99.90
2447;DHT22;26430;48.818;9.244;2024-01-11T06:04:08;0.30;99.90
2447;DHT22;26430;48.818;9.244;2024-01-11T06:06:34;0.30;99.90
2447;DHT22;26430;48.818;9.244;2024-01-11T06:08:59;0.10;99.90
2447;DHT22;26430;48.818;9.244;2024-01-11T06:11:25;0.10;99.90
2447;DHT22;26430;48.818;9.244;2024-01-11T06:13:50;0.20;99.90
2447;DHT22;26430;48.818;9.244;2024-01-11T06:16:16;0.30;99.90
2447;DHT22;26430;48.818;9.244;2024-01-11T06:18:41;0.50;99.90
2447;DHT22;26430;48.818;9.244;2024-01-11T06:21:07;0.40;99.90
2447;DHT22;26430;48.818;9.244;2024-01-11T06:23:32;0.30;99.90
2447;DHT22;26430;48.818;9.244;2024-01-11T06:25:58;0.30;99.90
2447;DHT22;26430;48.818;9.244;2024-01-11T06:28:23;0.20;99.90
2447;DHT22;26430;48.818;9.244;2024-01-11T06:30:49;0.00;99.90
2447;DHT22;26430;48.818;9.244;2024-01-11T06:33:14;-0.10;99.90
2447;DHT22;26430;48.818;9.244;2024-01-11T06:35:40;0.00;99.90
2447;DHT22;26430;48.818;9.244;2024-01-11T06:38:05;-0.10;99.90
2447;DHT22;26430;48.818;9.244;2024-01-11T06:40:31;0.00;99.90
2447;DHT22;26430;48.818;9.244;2024-01-11T06:42:56;0.00;99.90
2447;DHT22;26430;48.818;9.244;2024-01-11T06:45:23;0.20;99.90
2447;DHT22;26430;48.818;9.244;2024-01-11T06:47:48;0.30;99.90
2447;DHT22;26430;48.818;9.244;2024-01-11T06:50:14;0.30;99.90
2447;DHT22;26430;48.818;9.244;2024-01-11T06:52:40;0.30;99.90
2447;DHT22;26430;48.818;9.244;2024-01-11T06:55:06;0.20;99.90
2447;DHT22;26430;48.818;9.244;2024-01-11T06:57:31;-0.10;99.90
2447;DHT22;26430;48.818;9.244;2024-01-11T06:59:57;0.10;99.90
2447;DHT22;26430;48.818;9.244;2024-01-11T07:02:22;0.10;99.90
2447;DHT22;26430;48.818;9.244;2024-01-11T07:04:48;0.10;99.90
2447;DHT22;26430;48.818;9.244;2024-01-11T07:07:13;0.20;99.90
2447;DHT22;26430;48.818;9.244;2024-01-11T07:09:39;0.10;99.90
2447;DHT22;26430;48.818;9.244;2024-01-11T07:12:05;0.20;99.90
2447;DHT22;26430;48.818;9.244;2024-01-11T07:14:31;0.00;99.90
2447;DHT22;26430;48.818;9.244;2024-01-11T07:16:57;0.10;99.90
2447;DHT22;26430;48.818;9.244;2024-01-11T07:19:23;0.30;99.90
2447;DHT22;26430;48.818;9.244;2024-01-11T07:21:48;0.20;99.90
2447;DHT22;26430;48.818;9.244;2024-01-11T07:24:14;0.10;99.90
2447;DHT22;26430;48.818;9.244;2024-01-11T07:26:39;0.20;99.90
2447;DHT22;26430;48.818;9.244;2024-01-11T07:29:05;0.20;99.90
2447;DHT22;26430;48.818;9.244;2024-01-11T07:31:31;0.10;99.90
2447;DHT22;26430;48.818;9.244;2024-01-11T07:33:56;0.10;99.90
2447;DHT22;26430;48.818;9.244;2024-01-11T07:36:22;0.10;99.90
2447;DHT22;26430;48.818;9.244;2024-01-11T07:38:47;0.10;99.90
2447;DHT22;26430;48.818;9.244;2024-01-11T07:41:13;0.30;99.90
2447;DHT22;26430;48.818;9.244;2024-01-11T07:43:39;0.30;99.90
2447;DHT22;26430;48.818;9.244;2024-01-11T07:46:05;0.40;99.90
2447;DHT22;26430;48.818;9.244;2024-01-11T07:48:32;0.40;99.90
2447;DHT22;26430;48.818;9.244;2024-01-11T07:50:59;0.30;99.90
2447;DHT22;26430;48.818;9.244;2024-01-11T07:53:25;0.30;99.90
2447;DHT22;26430;48.818;9.244;2024-01-11T07:55:51;0.30;99.90
2447;DHT22;26430;48.818;9.244;2024-01-11T07:58:17;0.30;99.90
2447;DHT22;26430;48.818;9.244;2024-01-11T08:00:42;0.20;99.90
2447;DHT22;26430;48.818;9.244;2024-01-11T08:03:08;0.30;99.90
2447;DHT22;26430;48.818;9.244;2024-01-11T08:05:34;0.30;99.90
2447;DHT22;26430;48.818;9.244;2024-01-11T08:07:59;0.40;99.90
2447;DHT22;26430;48.818;9.244;2024-01-11T08:10:27;0.40;99.90
2447;DHT22;26430;48.818;9.244;2024-01-11T08:12:53;0.30;99.90
2447;DHT22;26430;48.818;9.244;2024-01-11T08:15:18;0.50;99.90
2447;DHT22;26430;48.818;9.244;2024-01-11T08:17:47;0.50;99.90
2447;DHT22;26430;48.818;9.244;2024-01-11T08:20:13;0.40;99.90
2447;DHT22;26430;48.818;9.244;2024-01-11T08:22:40;0.50;99.90
2447;DHT22;26430;48.818;9.244;2024-01-11T08:25:06;0.40;99.90
2447;DHT22;26430;48.818;9.244;2024-01-11T08:27:32;0.40;99.90
2447;DHT22;26430;48.818;9.244;2024-01-11T08:29:58;0.50;99.90
2447;DHT22;26430;48.818;9.244;2024-01-11T08:32:25;0.60;99.90
2447;DHT22;26430;48.818;9.244;2024-01-11T08:34:51;0.40;99.90
2447;DHT22;26430;48.818;9.244;2024-01-11T08:37:17;0.30;99.90
2447;DHT22;26430;48.818;9.244;2024-01-11T08:39:42;0.50;99.90
2447;DHT22;26430;48.818;9.244;2024-01-11T08:42:08;0.50;99.90
2447;DHT22;26430;48.818;9.244;2024-01-11T08:44:33;0.40;99.90
2447;DHT22;26430;48.818;9.244;2024-01-11T08:46:59;0.40;99.90
2447;DHT22;26430;48.818;9.244;2024-01-11T08:49:25;0.60;99.90
2447;DHT22;26430;48.818;9.244;2024-01-11T08:51:51;0.40;99.90
2447;DHT22;26430;48.818;9.244;2024-01-11T08:54:16;0.50;99.90
2447;DHT22;26430;48.818;9.244;2024-01-11T08:56:42;0.60;99.90
2447;DHT22;26430;48.818;9.244;2024-01-11T08:59:08;0.60;99.90
2447;DHT22;26430;48.818;9.244;2024-01-11T09:01:37;0.60;99.90
2447;DHT22;26430;48.818;9.244;2024-01-11T09:04:03;0.70;99.90
2447;DHT22;26430;48.818;9.244;2024-01-11T09:06:30;0.80;99.90
2447;DHT22;26430;48.818;9.244;2024-01-11T09:08:56;0.90;99.90
2447;DHT22;26430;48.818;9.244;2024-01-11T09:11:21;1.00;99.90
2447;DHT22;26430;48.818;9.244;2024-01-11T09:13:47;1.00;99.90
2447;DHT22;26430;48.818;9.244;2024-01-11T09:16:16;1.10;99.90
2447;DHT22;26430;48.818;9.244;2024-01-11T09:18:43;1.20;99.90
2447;DHT22;26430;48.818;9.244;2024-01-11T09:21:09;1.10;99.90
2447;DHT22;26430;48.818;9.244;2024-01-11T09:23:35;1.10;99.90
2447;DHT22;26430;48.818;9.244;2024-01-11T09:26:00;1.30;99.90
2447;DHT22;26430;48.818;9.244;2024-01-11T09:28:26;1.20;99.90
2447;DHT22;26430;48.818;9.244;2024-01-11T09:30:51;1.20;99.90
2447;DHT22;26430;48.818;9.244;2024-01-11T09:33:17;1.30;99.90
2447;DHT22;26430;48.818;9.244;2024-01-11T09:35:43;1.30;99.90
2447;DHT22;26430;48.818;9.244;2024-01-11T09:38:08;1.50;99.90
2447;DHT22;26430;48.818;9.244;2024-01-11T09:40:34;1.40;99.90
2447;DHT22;26430;48.818;9.244;2024-01-11T09:43:02;1.60;99.90
2447;DHT22;26430;48.818;9.244;2024-01-11T09:45:29;1.60;99.90
2447;DHT22;26430;48.818;9.244;2024-01-11T09:47:55;1.60;99.90
2447;DHT22;26430;48.818;9.244;2024-01-11T09:50:21;1.70;99.90
2447;DHT22;26430;48.818;9.244;2024-01-11T09:52:49;1.70;99.90
2447;DHT22;26430;48.818;9.244;2024-01-11T09:55:15;1.70;99.90
2447;DHT22;26430;48.818;9.244;2024-01-11T09:57:45;1.90;99.90
2447;DHT22;26430;48.818;9.244;2024-01-11T10:00:15;1.80;99.90
2447;DHT22;26430;48.818;9.244;2024-01-11T10:02:41;1.80;99.90
2447;DHT22;26430;48.818;9.244;2024-01-11T10:05:07;1.90;99.90
2447;DHT22;26430;48.818;9.244;2024-01-11T10:07:34;2.00;99.90
2447;DHT22;26430;48.818;9.244;2024-01-11T10:09:59;2.10;99.90
2447;DHT22;26430;48.818;9.244;2024-01-11T10:12:30;2.10;99.90
2447;DHT22;26430;48.818;9.244;2024-01-11T10:15:05;2.20;99.90
2447;DHT22;26430;48.818;9.244;2024-01-11T10:17:31;2.30;99.90
2447;DHT22;26430;48.818;9.244;2024-01-11T10:19:57;2.40;99.90
2447;DHT22;26430;48.818;9.244;2024-01-11T10:22:24;2.50;99.90
2447;DHT22;26430;48.818;9.244;2024-01-11T10:24:49;2.60;99.90
2447;DHT22;26430;48.818;9.244;2024-01-11T10:27:15;2.70;99.90
2447;DHT22;26430;48.818;9.244;2024-01-11T10:29:40;2.80;99.90
2447;DHT22;26430;48.818;9.244;2024-01-11T10:32:06;2.90;99.90
2447;DHT22;26430;48.818;9.244;2024-01-11T10:34:32;3.00;99.90
2447;DHT22;26430;48.818;9.244;2024-01-11T10:36:59;3.20;99.90
2447;DHT22;26430;48.818;9.244;2024-01-11T10:39:26;3.10;99.90
2447;DHT22;26430;48.818;9.244;2024-01-11T10:42:03;3.20;99.90
2447;DHT22;26430;48.818;9.244;2024-01-11T10:44:35;3.20;99.90
2447;DHT22;26430;48.818;9.244;2024-01-11T10:47:03;3.20;99.90
2447;DHT22;26430;48.818;9.244;2024-01-11T10:49:33;3.10;99.90
2447;DHT22;26430;48.818;9.244;2024-01-11T10:52:00;3.20;99.90
2447;DHT22;26430;48.818;9.244;2024-01-11T10:54:28;3.30;99.90
2447;DHT22;26430;48.818;9.244;2024-01-11T10:56:55;3.20;99.90
2447;DHT22;26430;48.818;9.244;2024-01-11T10:59:22;3.20;99.90
2447;DHT22;26430;48.818;9.244;2024-01-11T11:01:53;3.40;99.90
2447;DHT22;26430;48.818;9.244;2024-01-11T11:04:22;3.40;99.90
2447;DHT22;26430;48.818;9.244;2024-01-11T11:06:50;3.40;99.90
2447;DHT22;26430;48.818;9.244;2024-01-11T11:09:17;3.40;99.90
2447;DHT22;26430;48.818;9.244;2024-01-11T11:11:45;3.50;99.90
2447;DHT22;26430;48.818;9.244;2024-01-11T11:14:14;3.50;99.90
2447;DHT22;26430;48.818;9.244;2024-01-11T11:16:40;3.50;99.90
2447;DHT22;26430;48.818;9.244;2024-01-11T11:19:06;3.60;99.90
2447;DHT22;26430;48.818;9.244;2024-01-11T11:21:32;3.60;99.90
2447;DHT22;26430;48.818;9.244;2024-01-11T11:23:57;3.60;99.90
2447;DHT22;26430;48.818;9.244;2024-01-11T11:26:25;3.50;99.90
2447;DHT22;26430;48.818;9.244;2024-01-11T11:28:51;3.60;99.90
2447;DHT22;26430;48.818;9.244;2024-01-11T11:31:43;3.70;99.90
2447;DHT22;26430;48.818;9.244;2024-01-11T11:34:12;3.70;99.70
2447;DHT22;26430;48.818;9.244;2024-01-11T11:36:40;3.80;99.40
2447;DHT22;26430;48.818;9.244;2024-01-11T11:39:05;3.80;99.50
2447;DHT22;26430;48.818;9.244;2024-01-11T11:41:31;3.70;99.10
2447;DHT22;26430;48.818;9.244;2024-01-11T11:44:02;3.80;99.10
2447;DHT22;26430;48.818;9.244;2024-01-11T11:46:29;3.80;99.20
2447;DHT22;26430;48.818;9.244;2024-01-11T11:48:55;3.80;99.20
2447;DHT22;26430;48.818;9.244;2024-01-11T11:51:23;3.90;99.10
2447;DHT22;26430;48.818;9.244;2024-01-11T11:53:49;3.90;98.80
2447;DHT22;26430;48.818;9.244;2024-01-11T11:56:20;4.00;99.20
2447;DHT22;26430;48.818;9.244;2024-01-11T11:58:47;4.00;99.00
2447;DHT22;26430;48.818;9.244;2024-01-11T12:01:16;4.00;99.10
2447;DHT22;26430;48.818;9.244;2024-01-11T12:03:45;4.20;99.10
2447;DHT22;26430;48.818;9.244;2024-01-11T12:06:15;4.20;98.80
2447;DHT22;26430;48.818;9.244;2024-01-11T12:08:42;4.00;98.60
2447;DHT22;26430;48.818;9.244;2024-01-11T12:11:08;4.10;99.10
2447;DHT22;26430;48.818;9.244;2024-01-11T12:13:35;4.30;99.30
2447;DHT22;26430;48.818;9.244;2024-01-11T12:16:00;4.30;98.90
2447;DHT22;26430;48.818;9.244;2024-01-11T12:18:26;4.30;99.00
2447;DHT22;26430;48.818;9.244;2024-01-11T12:20:52;4.40;99.00
2447;DHT22;26430;48.818;9.244;2024-01-11T12:23:21;4.40;98.80
2447;DHT22;26430;48.818;9.244;2024-01-11T12:25:47;4.40;99.00
2447;DHT22;26430;48.818;9.244;2024-01-11T12:28:13;4.50;99.10
2447;DHT22;26430;48.818;9.244;2024-01-11T12:30:38;4.60;98.80
2447;DHT22;26430;48.818;9.244;2024-01-11T12:33:04;4.60;98.90
2447;DHT22;26430;48.818;9.244;2024-01-11T12:35:31;4.60;99.00
2447;DHT22;26430;48.818;9.244;2024-01-11T12:38:07;4.60;99.00
2447;DHT22;26430;48.818;9.244;2024-01-11T12:40:33;4.50;98.90
2447;DHT22;26430;48.818;9.244;2024-01-11T12:43:08;4.50;99.20
2447;DHT22;26430;48.818;9.244;2024-01-11T12:45:37;4.60;98.90
2447;DHT22;26430;48.818;9.244;2024-01-11T12:48:03;4.60;98.60
2447;DHT22;26430;48.818;9.244;2024-01-11T12:50:30;4.60;98.90
2447;DHT22;26430;48.818;9.244;2024-01-11T12:55:33;4.70;98.90
2447;DHT22;26430;48.818;9.244;2024-01-11T12:58:06;4.70;98.60
2447;DHT22;26430;48.818;9.244;2024-01-11T13:00:32;4.70;98.50
2447;DHT22;26430;48.818;9.244;2024-01-11T13:02:57;4.60;98.80
2447;DHT22;26430;48.818;9.244;2024-01-11T13:05:23;4.70;99.00
2447;DHT22;26430;48.818;9.244;2024-01-11T13:07:48;4.70;99.00
2447;DHT22;26430;48.818;9.244;2024-01-11T13:10:14;4.80;98.80
2447;DHT22;26430;48.818;9.244;2024-01-11T13:12:40;4.70;98.50
2447;DHT22;26430;48.818;9.244;2024-01-11T13:15:06;4.70;98.60
2447;DHT22;26430;48.818;9.244;2024-01-11T13:17:31;4.80;98.50
2447;DHT22;26430;48.818;9.244;2024-01-11T13:19:57;4.70;98.50
2447;DHT22;26430;48.818;9.244;2024-01-11T13:22:24;4.70;98.90
2447;DHT22;26430;48.818;9.244;2024-01-11T13:24:50;4.70;98.80
2447;DHT22;26430;48.818;9.244;2024-01-11T13:27:15;4.70;98.50
2447;DHT22;26430;48.818;9.244;2024-01-11T13:29:41;4.80;98.60
2447;DHT22;26430;48.818;9.244;2024-01-11T13:32:07;4.80;98.50
2447;DHT22;26430;48.818;9.244;2024-01-11T13:34:32;4.80;98.40
2447;DHT22;26430;48.818;9.244;2024-01-11T13:36:58;4.70;98.60
2447;DHT22;26430;48.818;9.244;2024-01-11T13:39:25;4.70;98.80
2447;DHT22;26430;48.818;9.244;2024-01-11T13:41:51;4.70;99.00
2447;DHT22;26430;48.818;9.244;2024-01-11T13:44:16;4.80;99.20
2447;DHT22;26430;48.818;9.244;2024-01-11T13:46:42;4.80;98.90
2447;DHT22;26430;48.818;9.244;2024-01-11T13:49:10;4.80;98.90
2447;DHT22;26430;48.818;9.244;2024-01-11T13:51:35;4.80;99.00
2447;DHT22;26430;48.818;9.244;2024-01-11T13:54:03;4.80;98.70
2447;DHT22;26430;48.818;9.244;2024-01-11T13:56:28;4.80;98.80
2447;DHT22;26430;48.818;9.244;2024-01-11T13:58:54;4.80;98.90
2447;DHT22;26430;48.818;9.244;2024-01-11T14:01:20;4.70;99.10
2447;DHT22;26430;48.818;9.244;2024-01-11T14:03:46;4.60;99.10
2447;DHT22;26430;48.818;9.244;2024-01-11T14:06:11;4.60;99.20
2447;DHT22;26430;48.818;9.244;2024-01-11T14:08:38;4.70;99.40
2447;DHT22;26430;48.818;9.244;2024-01-11T14:11:04;4.60;99.10
2447;DHT22;26430;48.818;9.244;2024-01-11T14:13:29;4.50;99.00
2447;DHT22;26430;48.818;9.244;2024-01-11T14:15:55;4.50;99.30
2447;DHT22;26430;48.818;9.244;2024-01-11T14:18:22;4.60;99.10
2447;DHT22;26430;48.818;9.244;2024-01-11T14:20:48;4.60;99.10
2447;DHT22;26430;48.818;9.244;2024-01-11T14:23:14;4.60;99.00
2447;DHT22;26430;48.818;9.244;2024-01-11T14:25:39;4.50;99.10
2447;DHT22;26430;48.818;9.244;2024-01-11T14:28:05;4.50;99.40
2447;DHT22;26430;48.818;9.244;2024-01-11T14:30:31;4.50;99.30
2447;DHT22;26430;48.818;9.244;2024-01-11T14:32:56;4.60;99.40
2447;DHT22;26430;48.818;9.244;2024-01-11T14:35:22;4.60;99.10
2447;DHT22;26430;48.818;9.244;2024-01-11T14:37:48;4.50;99.20
2447;DHT22;26430;48.818;9.244;2024-01-11T14:40:14;4.60;99.40
2447;DHT22;26430;48.818;9.244;2024-01-11T14:42:40;4.50;99.30
2447;DHT22;26430;48.818;9.244;2024-01-11T14:45:06;4.40;99.30
2447;DHT22;26430;48.818;9.244;2024-01-11T14:47:32;4.30;99.40
2447;DHT22;26430;48.818;9.244;2024-01-11T14:49:58;4.30;99.50
2447;DHT22;26430;48.818;9.244;2024-01-11T14:52:24;4.30;99.50
2447;DHT22;26430;48.818;9.244;2024-01-11T14:54:50;4.30;99.50
2447;DHT22;26430;48.818;9.244;2024-01-11T14:57:16;4.20;99.60
2447;DHT22;26430;48.818;9.244;2024-01-11T14:59:42;4.20;99.60
2447;DHT22;26430;48.818;9.244;2024-01-11T15:02:08;4.20;99.40
2447;DHT22;26430;48.818;9.244;2024-01-11T15:04:35;4.20;99.50
2447;DHT22;26430;48.818;9.244;2024-01-11T15:07:00;4.10;99.60
2447;DHT22;26430;48.818;9.244;2024-01-11T15:09:26;4.10;99.60
2447;DHT22;26430;48.818;9.244;2024-01-11T15:11:52;4.10;99.60
2447;DHT22;26430;48.818;9.244;2024-01-11T15:14:18;4.10;99.30
2447;DHT22;26430;48.818;9.244;2024-01-11T15:16:43;4.10;99.10
2447;DHT22;26430;48.818;9.244;2024-01-11T15:19:13;4.10;99.10
2447;DHT22;26430;48.818;9.244;2024-01-11T15:21:39;4.00;99.20
2447;DHT22;26430;48.818;9.244;2024-01-11T15:24:07;3.90;99.20
2447;DHT22;26430;48.818;9.244;2024-01-11T15:26:33;3.90;99.30
2447;DHT22;26430;48.818;9.244;2024-01-11T15:28:58;3.90;99.70
2447;DHT22;26430;48.818;9.244;2024-01-11T15:31:24;3.80;99.40
2447;DHT22;26430;48.818;9.244;2024-01-11T15:33:51;3.90;99.20
2447;DHT22;26430;48.818;9.244;2024-01-11T15:36:17;3.90;99.30
2447;DHT22;26430;48.818;9.244;2024-01-11T15:38:43;3.90;99.50
2447;DHT22;26430;48.818;9.244;2024-01-11T15:41:09;3.90;99.40
2447;DHT22;26430;48.818;9.244;2024-01-11T15:43:35;3.90;99.40
2447;DHT22;26430;48.818;9.244;2024-01-11T15:46:01;3.90;99.40
2447;DHT22;26430;48.818;9.244;2024-01-11T15:48:26;3.90;99.30
2447;DHT22;26430;48.818;9.244;2024-01-11T15:50:52;3.80;99.20
2447;DHT22;26430;48.818;9.244;2024-01-11T15:53:21;3.60;99.20
2447;DHT22;26430;48.818;9.244;2024-01-11T15:55:46;3.70;99.50
2447;DHT22;26430;48.818;9.244;2024-01-11T15:58:12;3.70;99.50
2447;DHT22;26430;48.818;9.244;2024-01-11T16:00:37;3.70;99.50